Latest Weather Observations for Mount Gambier

IDS60801

Issued at 7:01 pm CDT Wednesday 10 February 2016 (issued every 30 minutes, with the page automatically refreshed every 10 minutes)

About weather observations | Map of weather stations | Latest weather observations for SA | Other Formats
Station Details ID: 026021 Name: MOUNT GAMBIER AERO Lat: -37.75 Lon: 140.77 Height: 63.0 m
Data from the previous 72 hours. | See also: Recent months at Mount Gambier
Date/Time
CDT
Temp
°C
App
Temp
°C
Dew
Point
Rel
Hum
%
Delta-T
°C
Wind Press
QNH
hPa
Press
MSL
hPa
Rain
since 9 am
mm
Dir
 
Spd
km/h
Gust
km/h
Spd
kts
Gust
kts
10/07:00pm 19.6 15.2 11.6 60 4.4 S 26 32 14 17 1016.1 1015.9 -
10/06:30pm 20.7 15.8 11.3 55 5.2 S 28 37 15 20 1015.8 1015.6 -
10/06:00pm 21.8 16.9 11.2 51 5.9 SSW 28 33 15 18 1015.4 1015.2 -
10/05:30pm 23.2 18.3 11.2 46 6.7 SSW 28 33 15 18 1015.3 1015.1 -
10/05:00pm 23.6 18.5 10.6 44 7.2 S 28 32 15 17 1015.2 1015.0 -
10/04:30pm 24.0 18.8 10.2 41 7.6 SSW 28 37 15 20 1015.0 1014.8 -
10/04:00pm 24.3 20.2 10.2 41 7.8 SSW 22 32 12 17 1015.1 1014.9 -
10/03:30pm 24.9 20.6 10.6 40 8.0 SSW 24 33 13 18 1015.3 1015.1 -
10/03:00pm 24.0 18.9 10.5 42 7.5 SSW 28 37 15 20 1015.5 1015.3 0.0
10/02:30pm 24.6 20.2 10.4 40 7.9 SSW 24 37 13 20 1015.6 1015.4 -
10/02:00pm 25.1 20.2 9.9 38 8.4 S 26 35 14 19 1015.7 1015.5 -
10/01:30pm 24.9 21.2 10.3 39 8.1 SSW 20 30 11 16 1015.7 1015.5 -
10/01:00pm 24.4 20.8 9.8 39 8.0 S 19 30 10 16 1016.0 1015.8 -
10/12:30pm 22.7 19.2 10.3 45 6.8 SSE 19 26 10 14 1016.2 1016.0 -
10/12:00pm 22.0 19.2 11.2 50 6.0 S 17 30 9 16 1016.5 1016.3 -
10/11:30am 21.2 17.9 11.0 52 5.6 SSE 19 30 10 16 1017.0 1016.8 -
10/11:00am 21.4 18.6 11.3 52 5.6 SSE 17 28 9 15 1017.2 1017.0 -
10/10:30am 20.6 17.4 11.8 57 4.9 SSE 20 26 11 14 1017.3 1017.1 -
10/10:00am 19.7 16.5 11.8 60 4.4 SSE 20 28 11 15 1017.4 1017.2 0.0
10/09:30am 18.9 15.2 11.6 62 4.0 SSE 22 28 12 15 1017.4 1017.2 0.0
10/09:00am 17.1 15.0 12.4 74 2.6 SE 15 19 8 10 1017.4 1017.2 0.0
10/08:30am 15.2 13.7 13.0 87 1.2 SE 13 17 7 9 1017.1 1016.9 0.0
10/08:00am 13.7 13.6 13.3 97 0.2 SE 6 9 3 5 1016.6 1016.4 0.0
10/07:30am 11.3 11.5 10.7 96 0.3 CALM 0 4 0 2 1016.6 1016.4 0.0
10/07:22am 10.6 10.0 10.4 99 0.1 S 4 7 2 4 1016.5 1016.3 0.0
10/07:00am 9.5 8.6 9.3 99 0.1 SSW 4 9 2 5 1016.4 1016.2 0.0
10/06:30am 10.5 10.5 9.9 96 0.3 CALM 0 0 0 0 1015.9 1015.7 0.0
10/06:12am 10.7 10.1 10.3 97 0.2 E 4 6 2 3 1015.8 1015.6 0.0
10/06:00am 10.8 9.6 10.4 97 0.2 E 7 7 4 4 1015.8 1015.6 0.0
10/05:30am 10.4 9.7 10.2 99 0.1 E 4 6 2 3 1015.9 1015.7 0.0
10/05:29am 10.4 9.7 10.2 99 0.1 E 4 6 2 3 1015.9 1015.7 0.0
10/05:23am 10.7 9.6 10.1 96 0.3 E 6 7 3 4 1015.8 1015.6 0.0
10/05:07am 10.2 9.0 9.6 96 0.3 SE 6 7 3 4 1015.7 1015.5 0.0
10/05:00am 10.7 9.5 10.3 97 0.2 SSE 7 9 4 5 1015.8 1015.6 0.0
10/04:30am 10.1 7.9 9.5 96 0.3 S 11 13 6 7 1015.8 1015.6 0.0
10/04:00am 10.7 9.1 10.1 96 0.3 SSE 9 11 5 6 1015.7 1015.5 0.0
10/03:44am 10.7 9.4 10.1 96 0.3 SE 7 9 4 5 1015.8 1015.6 0.0
10/03:30am 10.6 9.4 10.2 97 0.2 SE 7 7 4 4 1015.8 1015.6 0.0
10/03:00am 10.7 9.1 10.1 96 0.3 SE 9 11 5 6 1016.0 1015.8 0.0
10/02:30am 11.5 10.4 10.7 95 0.4 SE 7 7 4 4 1016.3 1016.1 0.0
10/02:00am 11.8 10.4 11.0 95 0.4 SE 9 9 5 5 1016.6 1016.4 0.0
10/01:30am 12.0 11.0 11.0 94 0.5 SSE 7 9 4 5 1017.2 1017.0 0.0
10/01:00am 11.9 10.1 10.7 92 0.6 S 11 11 6 6 1017.4 1017.2 0.0
10/12:30am 12.3 11.4 11.2 93 0.6 SE 7 7 4 4 1017.4 1017.2 0.0
10/12:00am 12.5 11.6 11.2 92 0.7 SSE 7 9 4 5 1017.4 1017.2 0.0
 
Date/Time
CDT
Temp
°C
App
Temp
°C
Dew
Point
Rel
Hum
%
Delta-T
°C
Wind Press
QNH
hPa
Press
MSL
hPa
Rain
since 9 am
mm
Dir
 
Spd
km/h
Gust
km/h
Spd
kts
Gust
kts
09/11:30pm 12.6 11.2 10.9 89 0.9 SSE 9 11 5 6 1017.7 1017.5 0.0
09/11:00pm 13.4 11.7 11.3 87 1.1 SSE 11 15 6 8 1017.8 1017.6 0.0
09/10:30pm 14.3 12.4 11.7 84 1.4 SSE 13 17 7 9 1018.0 1017.8 0.0
09/10:00pm 14.7 12.4 11.7 82 1.6 SSE 15 17 8 9 1018.2 1018.0 0.0
09/09:30pm 15.4 12.3 11.7 78 2.0 SSE 19 26 10 14 1018.0 1017.8 0.0
09/09:00pm 16.0 12.7 11.6 75 2.4 S 20 28 11 15 1017.9 1017.7 0.0
09/08:30pm 16.6 12.5 11.6 72 2.7 S 24 32 13 17 1018.0 1017.8 0.0
09/08:00pm 17.5 13.4 11.6 68 3.2 S 24 32 13 17 1018.2 1018.0 0.0
09/07:30pm 18.8 15.2 11.7 63 3.9 S 22 30 12 16 1017.9 1017.7 0.0
09/07:00pm 19.9 15.6 12.0 60 4.4 S 26 33 14 18 1018.0 1017.8 0.0
09/06:30pm 21.1 15.7 12.2 56 5.0 S 32 35 17 19 1017.9 1017.7 0.0
09/06:00pm 22.8 17.7 11.8 50 6.2 SSW 30 35 16 19 1017.6 1017.4 0.0
09/05:30pm 24.0 20.0 11.8 46 6.9 S 24 32 13 17 1017.6 1017.4 0.0
09/05:00pm 24.4 20.2 11.2 43 7.4 SSW 24 30 13 16 1017.8 1017.6 0.0
09/04:30pm 24.8 20.9 10.9 41 7.8 S 22 30 12 16 1018.1 1017.9 0.0
09/04:00pm 25.2 20.3 10.0 38 8.4 SSW 26 37 14 20 1018.3 1018.1 0.0
09/03:30pm 26.5 22.3 9.7 34 9.3 S 22 32 12 17 1018.4 1018.2 0.0
09/03:00pm 26.9 22.9 9.0 32 9.8 S 20 33 11 18 1018.6 1018.4 0.0
09/02:30pm 26.7 22.6 10.0 35 9.3 S 22 30 12 16 1018.8 1018.6 0.0
09/02:00pm 26.1 21.2 10.1 36 8.9 SSW 26 33 14 18 1019.2 1019.1 0.0
09/01:30pm 27.1 22.9 11.1 36 9.1 SSW 24 33 13 18 1019.2 1019.1 0.0
09/01:00pm 27.1 23.6 10.3 35 9.4 S 19 28 10 15 1019.5 1019.4 0.0
09/12:30pm 24.8 22.0 10.1 39 8.1 S 15 24 8 13 1020.1 1020.0 0.0
09/12:00pm 24.5 22.7 10.7 41 7.7 SE 11 20 6 11 1020.3 1020.2 0.0
09/11:30am 23.9 21.8 11.2 44 7.1 SE 13 26 7 14 1020.8 1020.7 0.0
09/11:00am 22.5 19.9 10.7 47 6.5 SE 15 24 8 13 1021.2 1021.1 0.0
09/10:30am 21.0 18.0 10.8 52 5.6 SE 17 22 9 12 1021.4 1021.3 0.0
09/10:00am 20.0 17.1 11.0 56 4.9 SE 17 26 9 14 1021.5 1021.4 0.0
09/09:30am 19.1 15.4 11.4 61 4.2 SE 22 30 12 16 1021.8 1021.7 0.0
09/09:00am 18.3 15.1 11.9 66 3.5 SE 20 30 11 16 1022.0 1021.9 0.0
09/08:30am 16.4 14.3 12.4 77 2.2 SE 15 19 8 10 1022.2 1022.1 0.0
09/08:00am 14.1 12.9 12.8 92 0.7 SE 11 15 6 8 1022.0 1021.9 0.0
09/07:30am 11.9 10.7 11.5 97 0.2 SE 9 11 5 6 1022.0 1021.9 0.0
09/07:00am 10.6 9.3 10.0 96 0.3 ESE 7 7 4 4 1022.1 1022.0 0.0
09/06:30am 10.4 10.4 9.8 96 0.3 CALM 0 0 0 0 1022.0 1021.9 0.0
09/06:00am 10.7 10.8 10.1 96 0.3 CALM 0 0 0 0 1021.8 1021.7 0.0
09/05:30am 10.9 9.3 10.1 95 0.4 SSE 9 9 5 5 1021.6 1021.5 0.0
09/05:00am 10.6 8.9 10.0 96 0.3 S 9 11 5 6 1021.5 1021.4 0.0
09/04:30am 11.1 9.9 10.3 95 0.4 SSE 7 9 4 5 1021.5 1021.4 0.0
09/04:00am 11.3 10.1 10.3 94 0.5 SE 7 9 4 5 1021.8 1021.7 0.0
09/03:30am 11.2 9.6 10.2 94 0.5 SE 9 11 5 6 1021.9 1021.8 0.0
09/03:00am 11.6 10.1 10.4 92 0.6 SSE 9 11 5 6 1022.0 1021.9 0.0
09/02:30am 11.8 9.9 10.4 91 0.7 SSE 11 13 6 7 1022.3 1022.2 0.0
09/02:00am 12.0 10.2 10.8 92 0.6 SSE 11 13 6 7 1022.5 1022.4 0.0
09/01:30am 12.3 10.5 10.8 90 0.8 SSE 11 15 6 8 1022.7 1022.6 0.0
09/01:00am 13.0 11.3 11.3 89 0.9 SSE 11 15 6 8 1022.9 1022.8 0.0
09/12:30am 13.9 12.1 12.0 88 1.0 SSE 13 15 7 8 1023.1 1023.0 0.0
09/12:00am 14.3 12.1 12.1 87 1.2 SSE 15 19 8 10 1023.2 1023.1 0.0
 
Date/Time
CDT
Temp
°C
App
Temp
°C
Dew
Point
Rel
Hum
%
Delta-T
°C
Wind Press
QNH
hPa
Press
MSL
hPa
Rain
since 9 am
mm
Dir
 
Spd
km/h
Gust
km/h
Spd
kts
Gust
kts
08/11:30pm 14.8 12.7 12.4 85 1.3 SSE 15 19 8 10 1023.4 1023.3 0.0
08/11:00pm 15.2 12.8 12.8 85 1.3 SSE 17 24 9 13 1023.7 1023.6 0.0
08/10:30pm 15.3 13.3 12.8 85 1.4 SSE 15 19 8 10 1023.8 1023.7 0.0
08/10:00pm 15.9 13.5 12.8 82 1.7 SSE 17 24 9 13 1023.9 1023.8 0.0
08/09:30pm 16.7 13.1 12.9 78 2.1 SSE 24 33 13 18 1023.9 1023.8 0.0
08/09:00pm 17.5 13.4 12.6 73 2.7 SSE 26 33 14 18 1023.6 1023.5 0.0
08/08:30pm 17.8 13.3 12.6 71 2.9 SSE 28 35 15 19 1023.3 1023.2 0.0
08/08:00pm 18.3 14.7 13.0 71 3.0 SSE 24 33 13 18 1023.3 1023.2 0.0
08/07:30pm 18.8 14.3 12.5 67 3.5 SSE 28 37 15 20 1022.9 1022.8 0.0
08/07:00pm 19.9 14.7 11.6 58 4.6 SSE 30 37 16 20 1022.5 1022.4 0.0
08/06:30pm 20.6 15.0 11.6 56 5.0 S 32 37 17 20 1022.3 1022.2 0.0
08/06:00pm 22.0 16.2 11.4 51 5.9 S 33 39 18 21 1022.3 1022.2 0.0
08/05:30pm 22.8 16.9 11.1 47 6.5 S 33 41 18 22 1022.3 1022.2 0.0
08/05:00pm 22.4 16.5 10.6 47 6.5 S 32 41 17 22 1022.3 1022.2 0.0
08/04:30pm 23.9 17.8 9.8 40 7.7 S 32 39 17 21 1022.5 1022.4 0.0
08/04:00pm 23.5 17.4 9.7 41 7.5 SSE 32 41 17 22 1022.6 1022.5 0.0
08/03:30pm 24.0 17.8 9.4 39 7.9 SSE 32 41 17 22 1022.7 1022.6 0.0
08/03:00pm 25.3 19.0 9.1 35 8.8 SSE 32 39 17 21 1022.7 1022.6 0.0
08/02:30pm 24.8 19.0 9.6 38 8.3 S 30 46 16 25 1022.9 1022.8 0.0
08/02:00pm 25.0 19.5 9.2 36 8.6 S 28 41 15 22 1022.9 1022.8 0.0
08/01:30pm 24.3 18.8 9.1 38 8.2 SSE 28 39 15 21 1023.2 1023.1 0.0
08/01:00pm 23.4 17.6 9.6 41 7.5 SSE 30 39 16 21 1023.4 1023.3 0.0
08/12:30pm 23.9 18.3 10.3 42 7.5 S 30 41 16 22 1023.5 1023.4 0.0
08/12:00pm 22.6 17.4 10.1 45 6.8 S 28 43 15 23 1023.7 1023.6 0.0
08/11:30am 23.3 18.9 10.4 44 7.1 SSE 24 35 13 19 1023.7 1023.6 0.0
08/11:00am 22.3 17.6 10.6 47 6.4 SSE 26 35 14 19 1023.9 1023.8 0.0
08/10:30am 21.5 16.9 11.0 51 5.8 SSE 26 33 14 18 1024.1 1024.0 0.0
08/10:00am 20.6 16.3 10.9 53 5.3 SSE 24 35 13 19 1024.1 1024.0 0.0
08/09:30am 20.5 16.7 11.2 55 5.1 SE 22 32 12 17 1024.0 1023.9 0.0
08/09:00am 18.3 14.0 10.9 62 4.0 SSE 24 33 13 18 1024.0 1023.9 0.0
08/08:30am 17.2 13.9 11.5 69 3.1 SSE 20 28 11 15 1023.8 1023.7 0.0
08/08:00am 16.6 12.8 11.2 70 2.9 SSE 22 28 12 15 1023.6 1023.5 0.0
08/07:30am 16.1 12.3 11.3 73 2.6 SSE 22 32 12 17 1023.1 1023.0 0.0
08/07:00am 15.8 12.4 11.3 74 2.4 SSE 20 28 11 15 1022.8 1022.7 0.0
08/06:30am 15.7 12.3 11.2 74 2.4 SSE 20 30 11 16 1022.5 1022.4 0.0
08/06:00am 15.6 12.2 11.1 74 2.4 SSE 20 26 11 14 1022.1 1022.0 0.0
08/05:30am 15.6 11.4 11.1 74 2.4 SSE 24 30 13 16 1021.8 1021.7 0.0
08/05:00am 15.6 11.8 11.3 75 2.3 SSE 22 28 12 15 1021.7 1021.6 0.0
08/04:30am 15.5 12.3 11.4 76 2.2 SSE 19 26 10 14 1021.6 1021.5 0.0
08/04:00am 15.3 12.6 11.6 78 2.0 SSE 17 22 9 12 1021.5 1021.4 0.0
08/03:30am 14.7 12.4 11.7 82 1.6 SSE 15 19 8 10 1021.2 1021.1 0.0
08/03:00am 14.4 12.4 11.6 83 1.5 SSE 13 19 7 10 1021.2 1021.1 0.0
08/02:30am 14.5 12.2 11.7 83 1.5 SSE 15 17 8 9 1021.3 1021.2 0.0
08/02:00am 13.8 12.7 11.9 88 1.0 S 9 11 5 6 1021.6 1021.5 0.0
08/01:30am 12.9 11.3 11.4 91 0.8 SSE 11 13 6 7 1021.6 1021.5 0.0
08/01:00am 13.5 11.7 12.2 92 0.7 SSE 13 15 7 8 1021.8 1021.7 0.0
08/12:30am 13.5 12.4 12.0 91 0.8 SSE 9 11 5 6 1021.8 1021.7 0.0
08/12:00am 14.0 12.6 12.3 89 0.9 SSE 11 15 6 8 1021.7 1021.6 0.0
 
Date/Time
CDT
Temp
°C
App
Temp
°C
Dew
Point
Rel
Hum
%
Delta-T
°C
Wind Press
QNH
hPa
Press
MSL
hPa
Rain
since 9 am
mm
Dir
 
Spd
km/h
Gust
km/h
Spd
kts
Gust
kts
07/11:30pm 14.6 12.9 12.6 88 1.1 SSE 13 15 7 8 1021.7 1021.6 0.0
07/11:00pm 15.4 13.5 12.9 85 1.4 SSE 15 19 8 10 1021.7 1021.6 0.0
07/10:30pm 15.9 13.3 13.2 84 1.5 S 19 28 10 15 1021.7 1021.6 0.0
07/10:00pm 16.2 13.4 13.2 82 1.7 S 20 26 11 14 1021.4 1021.3 0.0
07/09:30pm 16.7 13.9 13.3 80 1.9 S 20 28 11 15 1021.0 1020.9 0.0
07/09:00pm 17.0 13.6 13.6 80 1.9 S 24 33 13 18 1020.6 1020.5 0.0
07/08:30pm 17.7 13.9 13.6 77 2.3 S 26 32 14 17 1020.2 1020.1 0.0
07/08:00pm 18.4 14.9 13.3 72 2.9 SSE 24 32 13 17 1019.9 1019.8 0.0
07/07:30pm 19.3 15.0 13.3 68 3.4 S 28 33 15 18 1019.5 1019.4 0.0

Other Formats:

Comma delimited format used in spreadsheet applications
http://www.bom.gov.au/fwo/IDS60801/IDS60801.94821.axf

JavaScript Object Notation format (JSON) in row-major order
http://www.bom.gov.au/fwo/IDS60801/IDS60801.94821.json